createdAt,value
2017-08-07T00:01:03.142Z,979.87
2017-08-07T00:02:13.418Z,979.84
2017-08-07T00:03:23.724Z,979.88
2017-08-07T00:04:34.014Z,979.89
2017-08-07T00:05:44.284Z,979.91
2017-08-07T00:06:54.554Z,979.92
2017-08-07T00:08:04.835Z,979.9
2017-08-07T00:09:15.106Z,979.94
2017-08-07T00:10:25.066Z,979.96
2017-08-07T00:11:34.705Z,979.93
2017-08-07T00:12:44.978Z,979.95
2017-08-07T00:13:55.254Z,979.91
2017-08-07T00:15:05.523Z,979.96
2017-08-07T00:16:15.485Z,979.95
2017-08-07T00:17:25.127Z,980
2017-08-07T00:18:35.390Z,979.98
2017-08-07T00:19:45.350Z,979.96
2017-08-07T00:20:55.618Z,979.99
2017-08-07T00:22:05.582Z,979.99
2017-08-07T00:23:15.228Z,979.96
2017-08-07T00:24:24.864Z,980
2017-08-07T00:25:35.135Z,980.03
2017-08-07T00:26:45.088Z,979.95
2017-08-07T00:27:55.361Z,979.99
2017-08-07T00:29:05.632Z,980.01
2017-08-07T00:30:15.582Z,979.95
2017-08-07T00:31:25.535Z,979.97
2017-08-07T00:32:35.499Z,979.96
2017-08-07T00:33:45.142Z,979.99
2017-08-07T00:34:55.405Z,979.95
2017-08-07T00:36:05.673Z,979.97
2017-08-07T00:37:15.624Z,979.98
2017-08-07T00:38:25.576Z,979.98
2017-08-07T00:39:35.843Z,979.99
2017-08-07T00:40:46.109Z,979.99
2017-08-07T00:41:56.070Z,980.01
2017-08-07T00:43:06.034Z,980.03
2017-08-07T00:44:15.669Z,980.05
2017-08-07T00:45:25.625Z,980.09
2017-08-07T00:46:35.581Z,980.04
2017-08-07T00:47:45.848Z,980.05
2017-08-07T00:48:55.804Z,980.04
2017-08-07T00:50:05.838Z,980.05
2017-08-07T00:51:16.110Z,980.07
2017-08-07T00:52:26.076Z,980.06
2017-08-07T00:53:36.034Z,980.05
2017-08-07T00:54:46.307Z,980.07
2017-08-07T00:55:56.577Z,980.1
2017-08-07T00:57:06.532Z,980.11
2017-08-07T00:58:16.493Z,980.11
2017-08-07T00:59:26.768Z,980.09
2017-08-07T01:00:37.034Z,980.12
2017-08-07T01:01:47.302Z,980.08
2017-08-07T01:02:57.571Z,980.1
2017-08-07T01:04:07.848Z,980.08
2017-08-07T01:05:18.119Z,980.11
2017-08-07T01:06:28.073Z,980.12
2017-08-07T01:07:38.340Z,980.13
2017-08-07T01:08:48.604Z,980.09
2017-08-07T01:09:58.563Z,980.14
2017-08-07T01:11:08.515Z,980.13
2017-08-07T01:12:18.789Z,980.15
2017-08-07T01:13:29.057Z,980.15
2017-08-07T01:14:39.327Z,980.16
2017-08-07T01:15:49.602Z,980.15
2017-08-07T01:16:59.880Z,980.23
2017-08-07T01:18:10.156Z,980.21
2017-08-07T01:19:20.433Z,980.24
2017-08-07T01:20:30.705Z,980.28
2017-08-07T01:21:40.974Z,980.26
2017-08-07T01:22:51.243Z,980.23
2017-08-07T01:24:01.513Z,980.27
2017-08-07T01:25:11.465Z,980.24
2017-08-07T01:26:21.754Z,980.19
2017-08-07T01:27:32.030Z,980.19
2017-08-07T01:28:42.300Z,980.2
2017-08-07T01:29:52.571Z,980.21
2017-08-07T01:31:02.839Z,980.21
2017-08-07T01:32:13.108Z,980.24
2017-08-07T01:33:23.382Z,980.25
2017-08-07T01:34:33.337Z,980.23
2017-08-07T01:35:43.292Z,980.27
2017-08-07T01:36:53.556Z,980.25
2017-08-07T01:38:03.198Z,980.26
2017-08-07T01:39:13.468Z,980.25
2017-08-07T01:40:23.744Z,980.23
2017-08-07T01:41:34.015Z,980.26
2017-08-07T01:42:44.297Z,980.28
2017-08-07T01:43:54.560Z,980.29
2017-08-07T01:45:04.831Z,980.27
2017-08-07T01:46:14.784Z,980.31
2017-08-07T01:47:24.740Z,980.3
2017-08-07T01:48:35.012Z,980.29
2017-08-07T01:49:45.307Z,980.28
2017-08-07T01:50:55.576Z,980.28
2017-08-07T01:52:05.842Z,980.33
2017-08-07T01:53:16.210Z,980.34
2017-08-07T01:54:26.475Z,980.33
2017-08-07T01:55:36.758Z,980.36
2017-08-07T01:56:47.043Z,980.37
2017-08-07T01:57:57.310Z,980.32
2017-08-07T01:59:07.605Z,980.31
2017-08-07T02:00:17.889Z,980.31
2017-08-07T02:01:28.162Z,980.29
2017-08-07T02:02:38.446Z,980.33
2017-08-07T02:03:48.717Z,980.3
2017-08-07T02:04:58.688Z,980.34
2017-08-07T02:06:08.658Z,980.31
2017-08-07T02:07:18.926Z,980.31
2017-08-07T02:08:28.880Z,980.29
2017-08-07T02:09:39.155Z,980.32
2017-08-07T02:10:49.109Z,980.33
2017-08-07T02:11:59.066Z,980.35
2017-08-07T02:13:09.021Z,980.33
2017-08-07T02:14:19.304Z,980.37
2017-08-07T02:15:29.570Z,980.34
2017-08-07T02:16:39.840Z,980.33
2017-08-07T02:17:50.107Z,980.36
2017-08-07T02:19:00.450Z,980.38
2017-08-07T02:20:10.407Z,980.37
2017-08-07T02:21:20.360Z,980.38
2017-08-07T02:22:30.009Z,980.42
2017-08-07T02:23:40.277Z,980.4
2017-08-07T02:24:50.544Z,980.41
2017-08-07T02:26:00.816Z,980.45
2017-08-07T02:27:11.084Z,980.45
2017-08-07T02:28:21.041Z,980.48
2017-08-07T02:29:31.035Z,980.47
2017-08-07T02:30:40.989Z,980.48
2017-08-07T02:31:51.261Z,980.49
2017-08-07T02:33:01.225Z,980.51
2017-08-07T02:34:11.495Z,980.51
2017-08-07T02:35:21.458Z,980.52
2017-08-07T02:36:31.737Z,980.52
2017-08-07T02:37:42.005Z,980.49
2017-08-07T02:38:51.977Z,980.51
2017-08-07T02:40:01.959Z,980.53
2017-08-07T02:41:11.938Z,980.58
2017-08-07T02:42:22.214Z,980.56
2017-08-07T02:43:32.485Z,980.58
2017-08-07T02:44:42.454Z,980.59
2017-08-07T02:45:52.731Z,980.62
2017-08-07T02:47:03.004Z,980.6
2017-08-07T02:48:13.272Z,980.57
2017-08-07T02:49:23.541Z,980.57
2017-08-07T02:50:33.809Z,980.59
2017-08-07T02:51:44.102Z,980.61
2017-08-07T02:52:54.385Z,980.59
2017-08-07T02:54:04.659Z,980.57
2017-08-07T02:55:14.617Z,980.54
2017-08-07T02:56:24.891Z,980.57
2017-08-07T02:57:35.166Z,980.56
2017-08-07T02:58:45.438Z,980.54
2017-08-07T02:59:55.390Z,980.55
2017-08-07T03:01:05.660Z,980.58
2017-08-07T03:02:15.621Z,980.54
2017-08-07T03:03:25.589Z,980.56
2017-08-07T03:04:35.878Z,980.55
2017-08-07T03:05:45.833Z,980.57
2017-08-07T03:06:56.113Z,980.56
2017-08-07T03:08:06.385Z,980.58
2017-08-07T03:09:16.662Z,980.52
2017-08-07T03:10:26.960Z,980.57
2017-08-07T03:11:37.227Z,980.55
2017-08-07T03:12:47.495Z,980.52
2017-08-07T03:13:57.762Z,980.56
2017-08-07T03:15:08.034Z,980.5
2017-08-07T03:16:18.309Z,980.55
2017-08-07T03:17:28.266Z,980.54
2017-08-07T03:18:38.229Z,980.52
2017-08-07T03:19:48.505Z,980.53
2017-08-07T03:20:58.776Z,980.54
2017-08-07T03:22:08.734Z,980.52
2017-08-07T03:23:19.017Z,980.55
2017-08-07T03:24:28.662Z,980.55
2017-08-07T03:25:38.935Z,980.55
2017-08-07T03:26:49.203Z,980.58
2017-08-07T03:27:59.474Z,980.57
2017-08-07T03:29:09.435Z,980.59
2017-08-07T03:30:19.391Z,980.58
2017-08-07T03:31:29.689Z,980.62
2017-08-07T03:32:39.955Z,980.6
2017-08-07T03:33:50.224Z,980.64
2017-08-07T03:35:00.489Z,980.61
2017-08-07T03:36:10.448Z,980.62
2017-08-07T03:37:20.720Z,980.63
2017-08-07T03:38:31.000Z,980.64
2017-08-07T03:39:40.954Z,980.65
2017-08-07T03:40:50.908Z,980.62
2017-08-07T03:42:01.183Z,980.61
2017-08-07T03:43:11.141Z,980.61
2017-08-07T03:44:21.409Z,980.59
2017-08-07T03:45:31.684Z,980.59
2017-08-07T03:46:41.951Z,980.56
2017-08-07T03:47:52.227Z,980.62
2017-08-07T03:49:02.183Z,980.61
2017-08-07T03:50:11.825Z,980.65
2017-08-07T03:51:21.781Z,980.66
2017-08-07T03:52:32.058Z,980.66
2017-08-07T03:53:42.027Z,980.68
2017-08-07T03:54:51.996Z,980.72
2017-08-07T03:56:02.276Z,980.72
2017-08-07T03:57:12.550Z,980.75
2017-08-07T03:58:22.513Z,980.74
2017-08-07T03:59:32.474Z,980.73
2017-08-07T04:00:42.756Z,980.71
2017-08-07T04:01:53.029Z,980.73
2017-08-07T04:03:02.998Z,980.74
2017-08-07T04:04:13.271Z,980.76
2017-08-07T04:05:23.225Z,980.83
2017-08-07T04:06:33.496Z,980.84
2017-08-07T04:07:43.465Z,980.86
2017-08-07T04:08:53.747Z,980.83
2017-08-07T04:10:03.707Z,980.85
2017-08-07T04:11:13.975Z,980.84
2017-08-07T04:12:23.931Z,980.86
2017-08-07T04:13:33.889Z,980.86
2017-08-07T04:14:44.158Z,980.89
2017-08-07T04:15:54.432Z,980.88
2017-08-07T04:17:04.702Z,980.91
2017-08-07T04:18:14.977Z,980.87
2017-08-07T04:19:25.247Z,980.94
2017-08-07T04:20:35.513Z,980.9
2017-08-07T04:21:45.779Z,980.93
2017-08-07T04:22:55.737Z,980.95
2017-08-07T04:24:06.016Z,980.96
2017-08-07T04:25:15.978Z,980.96
2017-08-07T04:26:25.939Z,980.99
2017-08-07T04:27:35.583Z,980.99
2017-08-07T04:28:45.850Z,980.99
2017-08-07T04:29:56.114Z,981.03
2017-08-07T04:31:06.072Z,981.02
2017-08-07T04:32:16.360Z,980.99
2017-08-07T04:33:26.635Z,981
2017-08-07T04:34:36.916Z,980.97
2017-08-07T04:35:46.877Z,981.01
2017-08-07T04:36:56.834Z,981
2017-08-07T04:38:06.799Z,981.01
2017-08-07T04:39:17.086Z,981.03
2017-08-07T04:40:27.044Z,981.09
2017-08-07T04:41:37.317Z,981.08
2017-08-07T04:42:47.596Z,981.08
2017-08-07T04:43:57.871Z,981.09
2017-08-07T04:45:07.828Z,981.08
2017-08-07T04:46:18.113Z,981.04
2017-08-07T04:47:28.386Z,980.99
2017-08-07T04:48:38.656Z,981.04
2017-08-07T04:49:48.298Z,981.02
2017-08-07T04:50:58.587Z,981.03
2017-08-07T04:52:08.858Z,981.08
2017-08-07T04:53:19.132Z,981.06
2017-08-07T04:54:29.423Z,981.05
2017-08-07T04:55:39.696Z,981.03
2017-08-07T04:56:49.970Z,981.03
2017-08-07T04:57:59.932Z,980.97
2017-08-07T04:59:10.197Z,980.99
2017-08-07T05:00:20.152Z,981.02
2017-08-07T05:01:30.105Z,981
2017-08-07T05:02:40.378Z,980.96
2017-08-07T05:03:50.686Z,980.95
2017-08-07T05:05:00.953Z,981
2017-08-07T05:06:11.223Z,981.05
2017-08-07T05:07:21.182Z,981.05
2017-08-07T05:08:31.140Z,981.07
2017-08-07T05:09:41.406Z,981.03
2017-08-07T05:10:51.370Z,981.03
2017-08-07T05:12:01.350Z,981.09
2017-08-07T05:13:11.318Z,981.07
2017-08-07T05:14:21.603Z,981.06
2017-08-07T05:15:31.879Z,981.06
2017-08-07T05:16:42.148Z,981.04
2017-08-07T05:17:52.108Z,981.03
2017-08-07T05:19:02.393Z,981.08
2017-08-07T05:20:12.660Z,981.02
2017-08-07T05:21:22.617Z,981.05
2017-08-07T05:22:32.883Z,981.07
2017-08-07T05:23:43.157Z,981.07
2017-08-07T05:24:53.427Z,981.09
2017-08-07T05:26:03.392Z,981.08
2017-08-07T05:27:13.663Z,981.07
2017-08-07T05:28:23.936Z,981.08
2017-08-07T05:29:33.267Z,981.09
2017-08-07T05:30:43.538Z,981.03
2017-08-07T05:31:53.804Z,981.06
2017-08-07T05:33:03.758Z,981.09
2017-08-07T05:34:14.046Z,981.06
2017-08-07T05:35:23.689Z,981.12
2017-08-07T05:36:33.970Z,981.09
2017-08-07T05:37:43.932Z,981.12
2017-08-07T05:38:54.207Z,981.11
2017-08-07T05:40:04.473Z,981.09
2017-08-07T05:41:14.737Z,981.14
2017-08-07T05:42:25.005Z,981.11
2017-08-07T05:43:35.281Z,981.08
2017-08-07T05:44:45.250Z,981.18
2017-08-07T05:45:55.518Z,981.13
2017-08-07T05:47:05.792Z,981.12
2017-08-07T05:48:16.061Z,981.13
2017-08-07T05:49:26.338Z,981.17
2017-08-07T05:50:36.648Z,981.12
2017-08-07T05:51:46.866Z,981.15
2017-08-07T05:52:56.505Z,981.13
2017-08-07T05:54:06.774Z,981.16
2017-08-07T05:55:17.052Z,981.16
2017-08-07T05:56:27.375Z,981.16
2017-08-07T05:57:37.371Z,981.15
2017-08-07T05:58:47.678Z,981.14
2017-08-07T05:59:57.952Z,981.15
2017-08-07T06:01:07.913Z,981.15
2017-08-07T06:02:18.197Z,981.19
2017-08-07T06:03:28.170Z,981.19
2017-08-07T06:04:38.449Z,981.2
2017-08-07T06:05:48.766Z,981.25
2017-08-07T06:06:58.719Z,981.24
2017-08-07T06:08:08.673Z,981.23
2017-08-07T06:09:18.952Z,981.21
2017-08-07T06:10:29.220Z,981.24
2017-08-07T06:11:39.488Z,981.26
2017-08-07T06:12:49.762Z,981.27
2017-08-07T06:14:00.061Z,981.26
2017-08-07T06:15:10.346Z,981.27
2017-08-07T06:16:20.620Z,981.26
2017-08-07T06:17:30.576Z,981.29
2017-08-07T06:18:40.532Z,981.28
2017-08-07T06:19:50.826Z,981.29
2017-08-07T06:21:01.135Z,981.29
2017-08-07T06:22:13.413Z,981.29
2017-08-07T06:23:23.701Z,981.31
2017-08-07T06:24:33.984Z,981.28
2017-08-07T06:25:44.258Z,981.23
2017-08-07T06:26:54.211Z,981.23
2017-08-07T06:28:04.489Z,981.29
2017-08-07T06:29:14.444Z,981.28
2017-08-07T06:30:24.730Z,981.25
2017-08-07T06:31:35.006Z,981.27
2017-08-07T06:32:44.970Z,981.3
2017-08-07T06:33:54.953Z,981.31
2017-08-07T06:35:05.238Z,981.3
2017-08-07T06:36:15.506Z,981.31
2017-08-07T06:37:25.778Z,981.3
2017-08-07T06:38:36.051Z,981.33
2017-08-07T06:39:46.318Z,981.36
2017-08-07T06:40:56.276Z,981.37
2017-08-07T06:42:06.545Z,981.37
2017-08-07T06:43:16.504Z,981.37
2017-08-07T06:44:26.775Z,981.35
2017-08-07T06:45:36.732Z,981.34
2017-08-07T06:46:46.688Z,981.39
2017-08-07T06:47:56.645Z,981.37
2017-08-07T06:49:06.919Z,981.39
2017-08-07T06:50:17.205Z,981.33
2017-08-07T06:51:27.159Z,981.31
2017-08-07T06:52:37.433Z,981.31
2017-08-07T06:53:47.389Z,981.28
2017-08-07T06:54:57.674Z,981.27
2017-08-07T06:56:07.949Z,981.27
2017-08-07T06:57:18.222Z,981.25
2017-08-07T06:58:28.493Z,981.29
2017-08-07T06:59:38.768Z,981.3
2017-08-07T07:00:49.038Z,981.3
2017-08-07T07:01:59.012Z,981.35
2017-08-07T07:03:08.967Z,981.35
2017-08-07T07:04:19.274Z,981.37
2017-08-07T07:05:29.552Z,981.36
2017-08-07T07:06:39.825Z,981.29
2017-08-07T07:07:50.097Z,981.25
2017-08-07T07:09:00.374Z,981.3
2017-08-07T07:10:10.692Z,981.29
2017-08-07T07:11:20.679Z,981.29
2017-08-07T07:12:30.642Z,981.26
2017-08-07T07:13:40.622Z,981.29
2017-08-07T07:14:50.894Z,981.3
2017-08-07T07:16:00.855Z,981.31
2017-08-07T07:17:11.135Z,981.31
2017-08-07T07:18:20.782Z,981.31
2017-08-07T07:19:31.064Z,981.35
2017-08-07T07:20:41.334Z,981.4
2017-08-07T07:21:51.616Z,981.35
2017-08-07T07:23:01.889Z,981.37
2017-08-07T07:24:12.170Z,981.33
2017-08-07T07:25:22.441Z,981.38
2017-08-07T07:26:32.716Z,981.39
2017-08-07T07:27:42.989Z,981.39
2017-08-07T07:28:53.263Z,981.43
2017-08-07T07:30:03.539Z,981.47
2017-08-07T07:31:13.814Z,981.43
2017-08-07T07:32:24.088Z,981.42
2017-08-07T07:33:34.063Z,981.45
2017-08-07T07:34:44.337Z,981.46
2017-08-07T07:35:54.610Z,981.45
2017-08-07T07:37:04.888Z,981.48
2017-08-07T07:38:14.855Z,981.47
2017-08-07T07:39:25.136Z,981.46
2017-08-07T07:40:35.412Z,981.44
2017-08-07T07:41:45.694Z,981.47
2017-08-07T07:42:55.967Z,981.45
2017-08-07T07:44:06.241Z,981.48
2017-08-07T07:45:16.516Z,981.46
2017-08-07T07:46:26.786Z,981.48
2017-08-07T07:47:36.744Z,981.44
2017-08-07T07:48:46.706Z,981.46
2017-08-07T07:49:56.985Z,981.47
2017-08-07T07:51:06.948Z,981.52
2017-08-07T07:52:17.223Z,981.53
2017-08-07T07:53:27.497Z,981.6
2017-08-07T07:54:37.772Z,981.65
2017-08-07T07:55:47.740Z,981.64
2017-08-07T07:56:58.045Z,981.64
2017-08-07T07:58:08.320Z,981.61
2017-08-07T07:59:18.594Z,981.6
2017-08-07T08:00:28.238Z,981.61
2017-08-07T08:01:38.510Z,981.6
2017-08-07T08:02:48.788Z,981.55
2017-08-07T08:03:59.065Z,981.57
2017-08-07T08:05:09.360Z,981.54
2017-08-07T08:06:19.638Z,981.56
2017-08-07T08:07:32.014Z,981.61
2017-08-07T08:08:42.286Z,981.57
2017-08-07T08:09:52.566Z,981.65
2017-08-07T08:11:02.841Z,981.65
2017-08-07T08:12:13.113Z,981.59
2017-08-07T08:13:23.091Z,981.65
2017-08-07T08:14:32.427Z,981.65
2017-08-07T08:15:42.711Z,981.65
2017-08-07T08:16:52.670Z,981.65
2017-08-07T08:18:02.956Z,981.66
2017-08-07T08:19:13.247Z,981.66
2017-08-07T08:20:23.529Z,981.65
2017-08-07T08:21:33.825Z,981.68
2017-08-07T08:22:44.096Z,981.69
2017-08-07T08:23:54.377Z,981.64
2017-08-07T08:25:04.652Z,981.65
2017-08-07T08:26:14.926Z,981.64
2017-08-07T08:27:25.202Z,981.66
2017-08-07T08:28:35.490Z,981.71
2017-08-07T08:29:45.768Z,981.68
2017-08-07T08:30:55.731Z,981.61
2017-08-07T08:32:06.032Z,981.65
2017-08-07T08:33:16.315Z,981.66
2017-08-07T08:34:26.594Z,981.73
2017-08-07T08:35:36.875Z,981.74
2017-08-07T08:36:47.149Z,981.79
2017-08-07T08:37:57.419Z,981.74
2017-08-07T08:39:07.393Z,981.81
2017-08-07T08:40:17.691Z,981.79
2017-08-07T08:41:27.969Z,981.81
2017-08-07T08:42:37.943Z,981.83
2017-08-07T08:43:47.908Z,981.76
2017-08-07T08:44:57.552Z,981.79
2017-08-07T08:46:07.516Z,981.81
2017-08-07T08:47:17.477Z,981.85
2017-08-07T08:48:27.765Z,981.86
2017-08-07T08:49:38.042Z,981.85
2017-08-07T08:50:48.313Z,981.87
2017-08-07T08:51:58.586Z,981.86
2017-08-07T08:53:08.548Z,981.85
2017-08-07T08:54:18.827Z,981.9
2017-08-07T08:55:29.121Z,981.85
2017-08-07T08:56:39.082Z,981.83
2017-08-07T08:57:49.355Z,981.85
2017-08-07T08:58:59.340Z,981.85
2017-08-07T09:00:09.615Z,981.87
2017-08-07T09:01:19.896Z,981.82
2017-08-07T09:02:30.166Z,981.85
2017-08-07T09:03:40.444Z,981.84
2017-08-07T09:04:50.725Z,981.86
2017-08-07T09:06:01.006Z,981.87
2017-08-07T09:07:11.282Z,981.87
2017-08-07T09:08:21.253Z,981.87
2017-08-07T09:09:31.223Z,981.87
2017-08-07T09:10:41.497Z,981.84
2017-08-07T09:11:51.773Z,981.84
2017-08-07T09:13:01.730Z,981.83
2017-08-07T09:14:12.008Z,981.86
2017-08-07T09:15:22.288Z,981.84
2017-08-07T09:16:32.272Z,981.78
2017-08-07T09:17:42.555Z,981.82
2017-08-07T09:18:52.834Z,981.83
2017-08-07T09:20:03.110Z,981.86
2017-08-07T09:21:13.078Z,981.83
2017-08-07T09:22:23.357Z,981.86
2017-08-07T09:23:33.637Z,981.84
2017-08-07T09:24:43.590Z,981.76
2017-08-07T09:25:53.870Z,981.83
2017-08-07T09:27:04.166Z,981.82
2017-08-07T09:28:14.140Z,981.79
2017-08-07T09:29:24.412Z,981.81
2017-08-07T09:30:34.690Z,981.81
2017-08-07T09:31:44.972Z,981.78
2017-08-07T09:32:55.245Z,981.77
2017-08-07T09:34:05.213Z,981.82
2017-08-07T09:35:15.489Z,981.78
2017-08-07T09:36:25.764Z,981.75
2017-08-07T09:37:36.040Z,981.78
2017-08-07T09:38:46.004Z,981.78
2017-08-07T09:39:55.965Z,981.75
2017-08-07T09:41:05.612Z,981.66
2017-08-07T09:42:15.570Z,981.71
2017-08-07T09:43:25.530Z,981.7
2017-08-07T09:44:35.810Z,981.74
2017-08-07T09:45:46.106Z,981.75
2017-08-07T09:46:56.082Z,981.76
2017-08-07T09:48:06.356Z,981.79
2017-08-07T09:49:16.319Z,981.77
2017-08-07T09:50:26.611Z,981.73
2017-08-07T09:51:36.892Z,981.72
2017-08-07T09:52:47.167Z,981.73
2017-08-07T09:53:57.445Z,981.67
2017-08-07T09:55:07.721Z,981.63
2017-08-07T09:56:17.681Z,981.62
2017-08-07T09:57:27.965Z,981.61
2017-08-07T09:58:37.925Z,981.6
2017-08-07T09:59:47.894Z,981.58
2017-08-07T10:00:57.857Z,981.56
2017-08-07T10:02:07.825Z,981.59
2017-08-07T10:03:17.788Z,981.59
2017-08-07T10:04:27.438Z,981.57
2017-08-07T10:05:37.396Z,981.6
2017-08-07T10:06:47.358Z,981.6
2017-08-07T10:07:57.635Z,981.62
2017-08-07T10:09:07.931Z,981.55
2017-08-07T10:10:17.576Z,981.52
2017-08-07T10:11:27.556Z,981.55
2017-08-07T10:12:37.527Z,981.51
2017-08-07T10:13:47.804Z,981.52
2017-08-07T10:14:58.082Z,981.5
2017-08-07T10:16:08.048Z,981.48
2017-08-07T10:17:18.017Z,981.46
2017-08-07T10:18:27.980Z,981.5
2017-08-07T10:19:38.282Z,981.51
2017-08-07T10:20:48.556Z,981.49
2017-08-07T10:21:58.836Z,981.47
2017-08-07T10:23:09.126Z,981.49
2017-08-07T10:24:19.403Z,981.46
2017-08-07T10:25:29.685Z,981.48
2017-08-07T10:26:39.961Z,981.54
2017-08-07T10:27:50.242Z,981.48
2017-08-07T10:29:00.520Z,981.46
2017-08-07T10:30:10.171Z,981.48
2017-08-07T10:31:20.454Z,981.49
2017-08-07T10:32:30.419Z,981.54
2017-08-07T10:33:40.070Z,981.52
2017-08-07T10:34:50.034Z,981.54
2017-08-07T10:36:00.305Z,981.57
2017-08-07T10:37:10.271Z,981.54
2017-08-07T10:38:20.552Z,981.55
2017-08-07T10:39:30.835Z,981.58
2017-08-07T10:40:40.795Z,981.55
2017-08-07T10:41:50.440Z,981.53
2017-08-07T10:43:00.406Z,981.53
2017-08-07T10:44:10.683Z,981.52
2017-08-07T10:45:20.327Z,981.53
2017-08-07T10:46:30.295Z,981.55
2017-08-07T10:47:40.592Z,981.54
2017-08-07T10:48:50.562Z,981.58
2017-08-07T10:50:00.849Z,981.58
2017-08-07T10:51:10.814Z,981.59
2017-08-07T10:52:20.467Z,981.6
2017-08-07T10:53:30.748Z,981.57
2017-08-07T10:54:40.395Z,981.57
2017-08-07T10:55:50.368Z,981.55
2017-08-07T10:57:00.335Z,981.52
2017-08-07T10:58:09.990Z,981.52
2017-08-07T10:59:20.269Z,981.53
2017-08-07T11:00:29.936Z,981.57
2017-08-07T11:01:39.902Z,981.55
2017-08-07T11:02:50.440Z,981.56
2017-08-07T11:04:00.418Z,981.58
2017-08-07T11:05:10.704Z,981.56
2017-08-07T11:06:21.003Z,981.6
2017-08-07T11:07:30.971Z,981.57
2017-08-07T11:08:41.253Z,981.61
2017-08-07T11:09:51.530Z,981.59
2017-08-07T11:11:01.492Z,981.58
2017-08-07T11:12:11.797Z,981.58
2017-08-07T11:13:21.765Z,981.58
2017-08-07T11:14:32.038Z,981.55
2017-08-07T11:15:41.702Z,981.58
2017-08-07T11:16:51.986Z,981.59
2017-08-07T11:18:02.276Z,981.55
2017-08-07T11:19:12.631Z,981.56
2017-08-07T11:20:22.602Z,981.57
2017-08-07T11:21:32.878Z,981.56
2017-08-07T11:22:42.844Z,981.57
2017-08-07T11:23:52.496Z,981.59
2017-08-07T11:25:02.776Z,981.58
2017-08-07T11:26:13.117Z,981.56
2017-08-07T11:27:23.398Z,981.53
2017-08-07T11:28:33.671Z,981.55
2017-08-07T11:29:43.944Z,981.55
2017-08-07T11:30:53.910Z,981.57
2017-08-07T11:32:04.195Z,981.53
2017-08-07T11:33:13.841Z,981.62
2017-08-07T11:34:23.806Z,981.59
2017-08-07T11:35:34.084Z,981.62
2017-08-07T11:36:44.361Z,981.6
2017-08-07T11:37:54.647Z,981.62
2017-08-07T11:39:04.317Z,981.66
2017-08-07T11:40:14.598Z,981.63
2017-08-07T11:41:24.257Z,981.62
2017-08-07T11:42:34.553Z,981.58
2017-08-07T11:43:44.846Z,981.6
2017-08-07T11:44:54.816Z,981.65
2017-08-07T11:46:05.095Z,981.69
2017-08-07T11:47:15.373Z,981.63
2017-08-07T11:48:25.663Z,981.64
2017-08-07T11:49:35.942Z,981.67
2017-08-07T11:50:46.219Z,981.65
2017-08-07T11:51:56.517Z,981.61
2017-08-07T11:53:06.477Z,981.58
2017-08-07T11:54:16.442Z,981.65
2017-08-07T11:55:26.721Z,981.59
2017-08-07T11:56:37.021Z,981.59
2017-08-07T11:57:47.297Z,981.57
2017-08-07T11:58:57.587Z,981.6
2017-08-07T12:00:07.861Z,981.54
2017-08-07T12:01:18.142Z,981.58
2017-08-07T12:02:28.431Z,981.58
2017-08-07T12:03:38.416Z,981.53
2017-08-07T12:04:48.394Z,981.6
2017-08-07T12:05:58.673Z,981.6
2017-08-07T12:07:08.710Z,981.63
2017-08-07T12:08:18.995Z,981.61
2017-08-07T12:09:29.276Z,981.61
2017-08-07T12:10:39.555Z,981.62
2017-08-07T12:11:49.838Z,981.61
2017-08-07T12:13:01.493Z,981.56
2017-08-07T12:14:11.783Z,981.58
2017-08-07T12:15:22.061Z,981.62
2017-08-07T12:16:32.346Z,981.66
2017-08-07T12:17:42.630Z,981.66
2017-08-07T12:18:52.911Z,981.68
2017-08-07T12:20:03.197Z,981.71
2017-08-07T12:21:13.160Z,981.71
2017-08-07T12:22:23.443Z,981.78
2017-08-07T12:23:33.418Z,981.8
2017-08-07T12:24:43.068Z,981.89
2017-08-07T12:25:52.717Z,981.9
2017-08-07T12:27:03.003Z,981.87
2017-08-07T12:28:13.283Z,981.84
2017-08-07T12:29:23.566Z,981.77
2017-08-07T12:30:33.845Z,981.8
2017-08-07T12:31:43.493Z,981.77
2017-08-07T12:32:53.463Z,981.78
2017-08-07T12:34:03.745Z,981.86
2017-08-07T12:35:13.713Z,981.85
2017-08-07T12:36:23.682Z,981.82
2017-08-07T12:37:34.002Z,981.84
2017-08-07T12:38:43.967Z,981.83
2017-08-07T12:39:53.932Z,981.8
2017-08-07T12:41:03.901Z,981.84
2017-08-07T12:42:14.188Z,981.85
2017-08-07T12:43:24.151Z,981.81
2017-08-07T12:44:34.437Z,981.81
2017-08-07T12:45:44.739Z,981.84
2017-08-07T12:46:55.020Z,981.87
2017-08-07T12:48:04.988Z,981.91
2017-08-07T12:49:15.269Z,981.89
2017-08-07T12:50:25.235Z,981.86
2017-08-07T12:51:35.203Z,981.82
2017-08-07T12:52:45.490Z,981.8
2017-08-07T12:53:55.471Z,981.81
2017-08-07T12:55:05.129Z,981.86
2017-08-07T12:56:15.415Z,981.86
2017-08-07T12:57:25.384Z,981.81
2017-08-07T12:58:35.350Z,981.8
2017-08-07T12:59:45.004Z,981.82
2017-08-07T13:00:54.978Z,981.83
2017-08-07T13:02:05.263Z,981.75
2017-08-07T13:03:15.549Z,981.78
2017-08-07T13:04:25.205Z,981.78
2017-08-07T13:05:35.493Z,981.79
2017-08-07T13:06:45.469Z,981.88
2017-08-07T13:07:55.434Z,981.82
2017-08-07T13:09:05.404Z,981.84
2017-08-07T13:10:15.749Z,981.85
2017-08-07T13:11:25.717Z,981.83
2017-08-07T13:12:35.369Z,981.83
2017-08-07T13:13:45.650Z,981.87
2017-08-07T13:14:55.615Z,981.93
2017-08-07T13:16:05.581Z,981.93
2017-08-07T13:17:15.240Z,981.86
2017-08-07T13:18:25.525Z,981.88
2017-08-07T13:19:35.810Z,981.88
2017-08-07T13:20:45.781Z,981.89
2017-08-07T13:21:55.431Z,981.85
2017-08-07T13:23:05.396Z,981.85
2017-08-07T13:24:15.673Z,981.83
2017-08-07T13:25:25.638Z,981.86
2017-08-07T13:26:35.603Z,981.88
2017-08-07T13:27:45.568Z,981.92
2017-08-07T13:28:55.541Z,981.9
2017-08-07T13:30:05.853Z,981.95
2017-08-07T13:31:15.524Z,981.87
2017-08-07T13:32:25.803Z,981.89
2017-08-07T13:33:35.769Z,981.88
2017-08-07T13:34:45.733Z,981.9
2017-08-07T13:35:55.380Z,981.92
2017-08-07T13:37:05.666Z,981.92
2017-08-07T13:38:15.956Z,981.92
2017-08-07T13:39:25.920Z,981.91
2017-08-07T13:40:36.198Z,981.91
2017-08-07T13:41:46.483Z,981.96
2017-08-07T13:42:56.762Z,981.95
2017-08-07T13:44:06.730Z,981.99
2017-08-07T13:45:17.013Z,981.99
2017-08-07T13:46:26.975Z,982.04
2017-08-07T13:47:37.250Z,982
2017-08-07T13:48:47.527Z,982.07
2017-08-07T13:49:57.491Z,982.03
2017-08-07T13:51:07.769Z,982.06
2017-08-07T13:52:18.046Z,982.03
2017-08-07T13:53:27.701Z,982.07
2017-08-07T13:54:37.663Z,982.08
2017-08-07T13:55:47.939Z,982.09
2017-08-07T13:56:57.901Z,982.1
2017-08-07T13:58:07.874Z,982.17
2017-08-07T13:59:18.152Z,982.2
2017-08-07T14:00:28.115Z,982.19
2017-08-07T14:01:38.409Z,982.17
2017-08-07T14:02:48.691Z,982.2
2017-08-07T14:03:58.968Z,982.23
2017-08-07T14:05:09.246Z,982.26
2017-08-07T14:06:19.225Z,982.25
2017-08-07T14:07:29.186Z,982.26
2017-08-07T14:08:39.459Z,982.33
2017-08-07T14:09:49.111Z,982.27
2017-08-07T14:10:59.389Z,982.29
2017-08-07T14:12:09.661Z,982.35
2017-08-07T14:13:19.312Z,982.41
2017-08-07T14:14:28.959Z,982.36
2017-08-07T14:15:38.606Z,982.36
2017-08-07T14:16:48.884Z,982.4
2017-08-07T14:17:59.163Z,982.39
2017-08-07T14:19:09.450Z,982.48
2017-08-07T14:20:19.736Z,982.47
2017-08-07T14:21:29.699Z,982.43
2017-08-07T14:22:39.971Z,982.49
2017-08-07T14:23:50.247Z,982.44
2017-08-07T14:25:00.206Z,982.53
2017-08-07T14:26:10.176Z,982.57
2017-08-07T14:27:20.453Z,982.54
2017-08-07T14:28:30.418Z,982.53
2017-08-07T14:29:40.697Z,982.52
2017-08-07T14:30:50.675Z,982.51
2017-08-07T14:32:00.327Z,982.46
2017-08-07T14:33:09.975Z,982.48
2017-08-07T14:34:20.258Z,982.54
2017-08-07T14:35:30.534Z,982.52
2017-08-07T14:36:40.818Z,982.52
2017-08-07T14:37:51.105Z,982.52